createdAt,value
2022-07-30T00:09:03.508Z,956.78
2022-07-30T00:24:05.339Z,956.73
2022-07-30T00:39:07.166Z,956.62
2022-07-30T00:54:09.028Z,956.58
2022-07-30T01:09:10.862Z,956.48
2022-07-30T01:24:12.683Z,956.44
2022-07-30T01:39:14.505Z,956.45
2022-07-30T01:54:16.339Z,956.61
2022-07-30T02:09:18.165Z,956.54
2022-07-30T02:24:20.002Z,956.65
2022-07-30T02:39:21.831Z,956.79
2022-07-30T02:54:23.662Z,957.01
2022-07-30T03:09:25.481Z,957.14
2022-07-30T03:24:27.302Z,957.3
2022-07-30T03:39:29.138Z,957.55
2022-07-30T03:54:30.976Z,957.74
2022-07-30T04:09:32.816Z,957.92
2022-07-30T04:24:34.637Z,958.14
2022-07-30T04:39:36.474Z,958.36
2022-07-30T04:54:38.313Z,958.48
2022-07-30T05:09:40.106Z,958.7
2022-07-30T05:24:45.445Z,958.74
2022-07-30T05:39:57.422Z,959
2022-07-30T05:55:05.341Z,959.27
2022-07-30T06:10:07.187Z,959.44
2022-07-30T06:25:09.051Z,959.51
2022-07-30T06:40:11.001Z,959.55
2022-07-30T06:55:12.827Z,959.65
2022-07-30T07:10:14.649Z,959.73
2022-07-30T07:25:16.472Z,959.78
2022-07-30T07:40:18.289Z,959.83
2022-07-30T07:55:20.147Z,959.81
2022-07-30T08:10:21.982Z,959.89
2022-07-30T08:25:24.509Z,959.92
2022-07-30T08:40:26.471Z,959.96
2022-07-30T08:55:28.300Z,960.18
2022-07-30T09:10:30.181Z,960.33
2022-07-30T09:25:32.007Z,960.49
2022-07-30T09:40:33.837Z,960.63
2022-07-30T09:55:35.659Z,960.88
2022-07-30T10:10:46.968Z,961.05
2022-07-30T10:25:55.689Z,961.19
2022-07-30T10:40:57.541Z,961.33
2022-07-30T10:56:00.797Z,961.35
2022-07-30T11:11:16.213Z,961.43
2022-07-30T11:26:21.945Z,961.6
2022-07-30T11:41:26.818Z,961.76
2022-07-30T11:56:28.644Z,961.89
2022-07-30T12:11:30.499Z,961.92
2022-07-30T12:26:32.319Z,962.07
2022-07-30T12:41:34.139Z,962.17
2022-07-30T12:56:35.965Z,962.28
2022-07-30T13:11:37.802Z,962.46
2022-07-30T13:26:39.623Z,962.53
2022-07-30T13:41:41.464Z,962.54
2022-07-30T13:56:43.247Z,962.63
2022-07-30T14:11:45.025Z,962.58
2022-07-30T14:26:46.862Z,962.58
2022-07-30T14:41:48.686Z,962.57
2022-07-30T14:56:58.611Z,962.39
2022-07-30T15:12:08.838Z,962.32
2022-07-30T15:27:11.413Z,962.29
2022-07-30T15:42:13.241Z,962.24
2022-07-30T15:57:15.050Z,962.14
2022-07-30T16:12:16.919Z,962.05
2022-07-30T16:27:18.750Z,961.84
2022-07-30T16:42:22.838Z,961.77
2022-07-30T16:57:24.709Z,961.68
2022-07-30T17:12:27.074Z,961.44
2022-07-30T17:27:29.325Z,961.24
2022-07-30T17:42:31.137Z,961.06
2022-07-30T17:57:32.952Z,960.94
2022-07-30T18:12:34.789Z,960.86
2022-07-30T18:27:40.002Z,960.62
2022-07-30T18:42:41.833Z,960.55
2022-07-30T18:57:43.664Z,960.28
2022-07-30T19:12:45.475Z,960.08
2022-07-30T19:27:48.416Z,959.91
2022-07-30T19:42:50.608Z,959.88
2022-07-30T19:57:57.500Z,959.66
2022-07-30T20:12:59.329Z,959.5
2022-07-30T20:28:01.733Z,959.35
2022-07-30T20:43:04.230Z,959.22
2022-07-30T20:58:11.144Z,959.14
2022-07-30T21:13:16.048Z,958.89
2022-07-30T21:28:18.452Z,958.74
2022-07-30T21:43:30.456Z,958.51
2022-07-30T21:58:35.446Z,958.36
2022-07-30T22:13:53.479Z,958.25
2022-07-30T22:28:56.106Z,958.2
2022-07-30T22:43:58.097Z,958.06
2022-07-30T22:45:42.293Z,958.09
2022-07-30T23:00:51.165Z,957.98
2022-07-30T23:15:53.042Z,957.87
2022-07-30T23:30:54.921Z,957.78
2022-07-30T23:45:56.836Z,957.69
